sensor_id;sensor_type;location;lat;lon;timestamp;P1;durP1;ratioP1;P2;durP2;ratioP2
239;SDS011;104;53.590;10.004;2022-10-17T00:01:19;18.93;;;9.20;;
239;SDS011;104;53.590;10.004;2022-10-17T00:03:46;16.17;;;8.43;;
239;SDS011;104;53.590;10.004;2022-10-17T00:06:13;23.00;;;9.50;;
239;SDS011;104;53.590;10.004;2022-10-17T00:08:41;13.10;;;8.80;;
239;SDS011;104;53.590;10.004;2022-10-17T00:11:12;16.23;;;8.60;;
239;SDS011;104;53.590;10.004;2022-10-17T00:13:40;14.57;;;8.97;;
239;SDS011;104;53.590;10.004;2022-10-17T00:16:08;13.97;;;8.87;;
239;SDS011;104;53.590;10.004;2022-10-17T00:18:37;15.73;;;9.43;;
239;SDS011;104;53.590;10.004;2022-10-17T00:21:04;12.10;;;8.80;;
239;SDS011;104;53.590;10.004;2022-10-17T00:23:32;12.27;;;8.90;;
239;SDS011;104;53.590;10.004;2022-10-17T00:26:00;17.60;;;8.80;;
239;SDS011;104;53.590;10.004;2022-10-17T00:28:27;13.13;;;9.33;;
239;SDS011;104;53.590;10.004;2022-10-17T00:30:55;12.60;;;8.30;;
239;SDS011;104;53.590;10.004;2022-10-17T00:33:22;13.60;;;8.90;;
239;SDS011;104;53.590;10.004;2022-10-17T00:35:50;15.90;;;9.33;;
239;SDS011;104;53.590;10.004;2022-10-17T00:38:18;21.33;;;8.80;;
239;SDS011;104;53.590;10.004;2022-10-17T00:40:45;12.47;;;9.17;;
239;SDS011;104;53.590;10.004;2022-10-17T00:43:14;14.80;;;9.40;;
239;SDS011;104;53.590;10.004;2022-10-17T00:45:42;20.80;;;9.57;;
239;SDS011;104;53.590;10.004;2022-10-17T00:48:10;12.20;;;9.30;;
239;SDS011;104;53.590;10.004;2022-10-17T00:50:38;15.97;;;9.50;;
239;SDS011;104;53.590;10.004;2022-10-17T00:53:07;13.90;;;9.20;;
239;SDS011;104;53.590;10.004;2022-10-17T00:55:35;18.00;;;10.83;;
239;SDS011;104;53.590;10.004;2022-10-17T00:58:04;16.23;;;10.23;;
239;SDS011;104;53.590;10.004;2022-10-17T01:00:32;14.37;;;10.10;;
239;SDS011;104;53.590;10.004;2022-10-17T01:03:01;22.67;;;10.47;;
239;SDS011;104;53.590;10.004;2022-10-17T01:05:28;21.63;;;9.90;;
239;SDS011;104;53.590;10.004;2022-10-17T01:07:56;15.70;;;10.17;;
239;SDS011;104;53.590;10.004;2022-10-17T01:10:28;13.07;;;9.50;;
239;SDS011;104;53.590;10.004;2022-10-17T01:12:58;21.93;;;10.23;;
239;SDS011;104;53.590;10.004;2022-10-17T01:15:30;18.40;;;11.00;;
239;SDS011;104;53.590;10.004;2022-10-17T01:18:03;22.20;;;10.60;;
239;SDS011;104;53.590;10.004;2022-10-17T01:23:26;15.80;;;10.60;;
239;SDS011;104;53.590;10.004;2022-10-17T01:25:57;27.80;;;10.83;;
239;SDS011;104;53.590;10.004;2022-10-17T01:28:31;23.13;;;10.87;;
239;SDS011;104;53.590;10.004;2022-10-17T01:31:06;18.33;;;12.57;;
239;SDS011;104;53.590;10.004;2022-10-17T01:33:42;16.80;;;10.80;;
239;SDS011;104;53.590;10.004;2022-10-17T01:36:10;16.33;;;10.40;;
239;SDS011;104;53.590;10.004;2022-10-17T01:38:42;21.07;;;11.40;;
239;SDS011;104;53.590;10.004;2022-10-17T01:41:12;14.67;;;10.73;;
239;SDS011;104;53.590;10.004;2022-10-17T01:43:43;21.80;;;11.13;;
239;SDS011;104;53.590;10.004;2022-10-17T01:46:16;16.20;;;11.00;;
239;SDS011;104;53.590;10.004;2022-10-17T01:48:44;15.63;;;10.30;;
239;SDS011;104;53.590;10.004;2022-10-17T01:51:12;15.73;;;10.63;;
239;SDS011;104;53.590;10.004;2022-10-17T01:53:43;15.13;;;10.90;;
239;SDS011;104;53.590;10.004;2022-10-17T01:56:13;19.60;;;11.07;;
239;SDS011;104;53.590;10.004;2022-10-17T01:58:41;15.00;;;10.70;;
239;SDS011;104;53.590;10.004;2022-10-17T02:01:09;20.77;;;10.60;;
239;SDS011;104;53.590;10.004;2022-10-17T02:03:39;19.63;;;11.00;;
239;SDS011;104;53.590;10.004;2022-10-17T02:06:07;17.20;;;11.77;;
239;SDS011;104;53.590;10.004;2022-10-17T02:08:39;17.80;;;11.57;;
239;SDS011;104;53.590;10.004;2022-10-17T02:11:08;21.67;;;11.83;;
239;SDS011;104;53.590;10.004;2022-10-17T02:13:39;32.07;;;11.80;;
239;SDS011;104;53.590;10.004;2022-10-17T02:16:11;20.53;;;10.67;;
239;SDS011;104;53.590;10.004;2022-10-17T02:21:30;18.90;;;10.77;;
239;SDS011;104;53.590;10.004;2022-10-17T02:24:01;16.67;;;10.10;;
239;SDS011;104;53.590;10.004;2022-10-17T02:26:32;17.03;;;10.50;;
239;SDS011;104;53.590;10.004;2022-10-17T02:29:04;21.73;;;11.17;;
239;SDS011;104;53.590;10.004;2022-10-17T02:31:33;20.70;;;11.30;;
239;SDS011;104;53.590;10.004;2022-10-17T02:34:01;17.50;;;11.03;;
239;SDS011;104;53.590;10.004;2022-10-17T02:36:34;15.87;;;10.50;;
239;SDS011;104;53.590;10.004;2022-10-17T02:39:02;19.77;;;10.53;;
239;SDS011;104;53.590;10.004;2022-10-17T02:41:30;23.37;;;9.90;;
239;SDS011;104;53.590;10.004;2022-10-17T02:43:57;14.43;;;9.63;;
239;SDS011;104;53.590;10.004;2022-10-17T02:46:25;13.57;;;9.70;;
239;SDS011;104;53.590;10.004;2022-10-17T02:48:54;15.60;;;10.23;;
239;SDS011;104;53.590;10.004;2022-10-17T02:51:26;13.60;;;9.07;;
239;SDS011;104;53.590;10.004;2022-10-17T02:53:57;15.30;;;10.10;;
239;SDS011;104;53.590;10.004;2022-10-17T02:56:27;17.33;;;10.77;;
239;SDS011;104;53.590;10.004;2022-10-17T02:58:57;14.60;;;10.23;;
239;SDS011;104;53.590;10.004;2022-10-17T03:01:25;18.97;;;9.67;;
239;SDS011;104;53.590;10.004;2022-10-17T03:04:03;24.77;;;9.10;;
239;SDS011;104;53.590;10.004;2022-10-17T03:06:30;18.30;;;9.80;;
239;SDS011;104;53.590;10.004;2022-10-17T03:08:59;16.57;;;10.10;;
239;SDS011;104;53.590;10.004;2022-10-17T03:11:26;16.37;;;10.10;;
239;SDS011;104;53.590;10.004;2022-10-17T03:13:53;16.60;;;10.70;;
239;SDS011;104;53.590;10.004;2022-10-17T03:16:20;19.60;;;10.57;;
239;SDS011;104;53.590;10.004;2022-10-17T03:18:48;21.80;;;10.53;;
239;SDS011;104;53.590;10.004;2022-10-17T03:21:15;16.17;;;10.17;;
239;SDS011;104;53.590;10.004;2022-10-17T03:23:42;13.77;;;9.57;;
239;SDS011;104;53.590;10.004;2022-10-17T03:26:11;13.10;;;9.70;;
239;SDS011;104;53.590;10.004;2022-10-17T03:28:38;17.80;;;10.37;;
239;SDS011;104;53.590;10.004;2022-10-17T03:31:06;15.83;;;10.00;;
239;SDS011;104;53.590;10.004;2022-10-17T03:33:34;14.00;;;9.97;;
239;SDS011;104;53.590;10.004;2022-10-17T03:36:04;15.23;;;10.07;;
239;SDS011;104;53.590;10.004;2022-10-17T03:38:31;17.00;;;10.33;;
239;SDS011;104;53.590;10.004;2022-10-17T03:40:58;17.13;;;10.63;;
239;SDS011;104;53.590;10.004;2022-10-17T03:43:27;14.07;;;10.33;;
239;SDS011;104;53.590;10.004;2022-10-17T03:45:55;22.03;;;11.10;;
239;SDS011;104;53.590;10.004;2022-10-17T03:48:22;16.97;;;10.90;;
239;SDS011;104;53.590;10.004;2022-10-17T03:50:50;13.43;;;10.40;;
239;SDS011;104;53.590;10.004;2022-10-17T03:53:17;21.30;;;11.40;;
239;SDS011;104;53.590;10.004;2022-10-17T03:55:45;13.90;;;10.40;;
239;SDS011;104;53.590;10.004;2022-10-17T03:58:12;13.60;;;10.03;;
239;SDS011;104;53.590;10.004;2022-10-17T04:00:40;20.63;;;11.77;;
239;SDS011;104;53.590;10.004;2022-10-17T04:03:08;13.97;;;10.67;;
239;SDS011;104;53.590;10.004;2022-10-17T04:05:35;16.20;;;10.90;;
239;SDS011;104;53.590;10.004;2022-10-17T04:08:02;19.20;;;10.87;;
239;SDS011;104;53.590;10.004;2022-10-17T04:10:29;17.33;;;11.27;;
239;SDS011;104;53.590;10.004;2022-10-17T04:12:57;20.47;;;11.13;;
239;SDS011;104;53.590;10.004;2022-10-17T04:15:24;49.13;;;12.73;;
239;SDS011;104;53.590;10.004;2022-10-17T04:17:53;21.23;;;10.80;;
239;SDS011;104;53.590;10.004;2022-10-17T04:20:20;18.93;;;9.63;;
239;SDS011;104;53.590;10.004;2022-10-17T04:22:47;19.33;;;11.17;;
239;SDS011;104;53.590;10.004;2022-10-17T04:25:15;17.53;;;10.40;;
239;SDS011;104;53.590;10.004;2022-10-17T04:27:42;20.70;;;9.90;;
239;SDS011;104;53.590;10.004;2022-10-17T04:30:10;13.50;;;9.40;;
239;SDS011;104;53.590;10.004;2022-10-17T04:32:37;18.13;;;9.40;;
239;SDS011;104;53.590;10.004;2022-10-17T04:35:07;19.17;;;9.97;;
239;SDS011;104;53.590;10.004;2022-10-17T04:37:34;24.23;;;9.47;;
239;SDS011;104;53.590;10.004;2022-10-17T04:40:02;18.27;;;9.90;;
239;SDS011;104;53.590;10.004;2022-10-17T04:42:29;19.20;;;9.97;;
239;SDS011;104;53.590;10.004;2022-10-17T04:44:56;13.93;;;8.77;;
239;SDS011;104;53.590;10.004;2022-10-17T04:47:24;16.10;;;9.20;;
239;SDS011;104;53.590;10.004;2022-10-17T04:49:51;22.00;;;9.90;;
239;SDS011;104;53.590;10.004;2022-10-17T04:52:20;20.23;;;9.40;;
239;SDS011;104;53.590;10.004;2022-10-17T04:54:47;13.97;;;9.23;;
239;SDS011;104;53.590;10.004;2022-10-17T04:57:14;20.30;;;9.23;;
239;SDS011;104;53.590;10.004;2022-10-17T04:59:42;19.73;;;8.73;;
239;SDS011;104;53.590;10.004;2022-10-17T05:02:11;12.40;;;8.83;;
239;SDS011;104;53.590;10.004;2022-10-17T05:04:38;19.30;;;8.90;;
239;SDS011;104;53.590;10.004;2022-10-17T05:07:06;15.07;;;9.80;;
239;SDS011;104;53.590;10.004;2022-10-17T05:09:35;12.07;;;8.83;;
239;SDS011;104;53.590;10.004;2022-10-17T05:12:02;15.13;;;8.93;;
239;SDS011;104;53.590;10.004;2022-10-17T05:14:29;13.30;;;9.00;;
239;SDS011;104;53.590;10.004;2022-10-17T05:16:59;15.10;;;9.13;;
239;SDS011;104;53.590;10.004;2022-10-17T05:19:27;12.53;;;8.70;;
239;SDS011;104;53.590;10.004;2022-10-17T05:21:54;14.03;;;9.60;;
239;SDS011;104;53.590;10.004;2022-10-17T05:24:22;23.23;;;10.10;;
239;SDS011;104;53.590;10.004;2022-10-17T05:26:51;14.83;;;9.43;;
239;SDS011;104;53.590;10.004;2022-10-17T05:29:18;14.93;;;9.97;;
239;SDS011;104;53.590;10.004;2022-10-17T05:31:46;17.87;;;12.20;;
239;SDS011;104;53.590;10.004;2022-10-17T05:34:13;17.53;;;11.60;;
239;SDS011;104;53.590;10.004;2022-10-17T05:36:40;19.50;;;13.03;;
239;SDS011;104;53.590;10.004;2022-10-17T05:39:13;22.93;;;12.50;;
239;SDS011;104;53.590;10.004;2022-10-17T05:41:43;20.03;;;13.47;;
239;SDS011;104;53.590;10.004;2022-10-17T05:44:12;19.17;;;13.17;;
239;SDS011;104;53.590;10.004;2022-10-17T05:46:39;20.70;;;12.87;;
239;SDS011;104;53.590;10.004;2022-10-17T05:49:08;25.83;;;13.33;;
239;SDS011;104;53.590;10.004;2022-10-17T05:51:35;25.63;;;13.27;;
239;SDS011;104;53.590;10.004;2022-10-17T05:54:03;29.33;;;14.00;;
239;SDS011;104;53.590;10.004;2022-10-17T05:56:37;25.13;;;13.07;;
239;SDS011;104;53.590;10.004;2022-10-17T05:59:04;25.20;;;13.60;;
239;SDS011;104;53.590;10.004;2022-10-17T06:01:33;26.53;;;12.80;;
239;SDS011;104;53.590;10.004;2022-10-17T06:04:00;40.73;;;14.50;;
239;SDS011;104;53.590;10.004;2022-10-17T06:06:30;34.40;;;14.40;;
239;SDS011;104;53.590;10.004;2022-10-17T06:08:58;26.90;;;13.80;;
239;SDS011;104;53.590;10.004;2022-10-17T06:11:32;20.83;;;13.70;;
239;SDS011;104;53.590;10.004;2022-10-17T06:14:04;24.27;;;13.77;;
239;SDS011;104;53.590;10.004;2022-10-17T06:16:35;20.50;;;11.60;;
239;SDS011;104;53.590;10.004;2022-10-17T06:19:04;23.33;;;12.00;;
239;SDS011;104;53.590;10.004;2022-10-17T06:21:32;30.90;;;12.93;;
239;SDS011;104;53.590;10.004;2022-10-17T06:24:04;32.73;;;13.70;;
239;SDS011;104;53.590;10.004;2022-10-17T06:26:34;53.67;;;15.30;;
239;SDS011;104;53.590;10.004;2022-10-17T06:29:02;37.43;;;14.53;;
239;SDS011;104;53.590;10.004;2022-10-17T06:31:31;29.27;;;15.13;;
239;SDS011;104;53.590;10.004;2022-10-17T06:43:33;35.17;;;13.23;;
239;SDS011;104;53.590;10.004;2022-10-17T06:46:06;26.43;;;12.87;;
239;SDS011;104;53.590;10.004;2022-10-17T06:48:49;40.43;;;12.80;;
239;SDS011;104;53.590;10.004;2022-10-17T07:06:51;19.57;;;10.70;;
239;SDS011;104;53.590;10.004;2022-10-17T07:09:38;18.47;;;10.80;;
239;SDS011;104;53.590;10.004;2022-10-17T07:12:14;22.60;;;10.13;;
239;SDS011;104;53.590;10.004;2022-10-17T07:15:08;14.73;;;9.30;;
239;SDS011;104;53.590;10.004;2022-10-17T07:17:49;16.37;;;9.20;;
239;SDS011;104;53.590;10.004;2022-10-17T07:23:37;15.40;;;9.67;;
239;SDS011;104;53.590;10.004;2022-10-17T07:26:22;21.17;;;10.20;;
239;SDS011;104;53.590;10.004;2022-10-17T07:29:12;31.10;;;9.83;;
239;SDS011;104;53.590;10.004;2022-10-17T07:31:39;16.47;;;10.63;;
239;SDS011;104;53.590;10.004;2022-10-17T07:34:15;19.90;;;10.00;;
239;SDS011;104;53.590;10.004;2022-10-17T07:39:54;55.30;;;14.70;;
239;SDS011;104;53.590;10.004;2022-10-17T07:42:55;27.83;;;16.97;;
239;SDS011;104;53.590;10.004;2022-10-17T07:45:41;19.70;;;11.70;;
239;SDS011;104;53.590;10.004;2022-10-17T07:48:27;19.43;;;11.73;;
239;SDS011;104;53.590;10.004;2022-10-17T07:51:09;20.60;;;11.23;;
239;SDS011;104;53.590;10.004;2022-10-17T07:53:52;17.17;;;12.50;;
239;SDS011;104;53.590;10.004;2022-10-17T07:56:20;21.80;;;13.97;;
239;SDS011;104;53.590;10.004;2022-10-17T07:58:48;20.87;;;13.40;;
239;SDS011;104;53.590;10.004;2022-10-17T08:01:16;19.47;;;13.20;;
239;SDS011;104;53.590;10.004;2022-10-17T08:03:47;19.43;;;13.33;;
239;SDS011;104;53.590;10.004;2022-10-17T08:06:15;28.33;;;14.20;;
239;SDS011;104;53.590;10.004;2022-10-17T08:08:50;28.10;;;14.77;;
239;SDS011;104;53.590;10.004;2022-10-17T08:11:20;20.60;;;13.27;;
239;SDS011;104;53.590;10.004;2022-10-17T08:14:02;25.10;;;16.03;;
239;SDS011;104;53.590;10.004;2022-10-17T08:16:30;29.20;;;16.07;;
239;SDS011;104;53.590;10.004;2022-10-17T08:26:56;44.93;;;22.90;;
239;SDS011;104;53.590;10.004;2022-10-17T08:29:24;40.53;;;21.73;;
239;SDS011;104;53.590;10.004;2022-10-17T08:31:56;42.00;;;20.97;;
239;SDS011;104;53.590;10.004;2022-10-17T08:34:25;38.80;;;22.73;;
239;SDS011;104;53.590;10.004;2022-10-17T08:36:56;38.77;;;21.30;;
239;SDS011;104;53.590;10.004;2022-10-17T08:39:25;44.13;;;22.63;;
239;SDS011;104;53.590;10.004;2022-10-17T08:42:02;45.40;;;25.10;;
239;SDS011;104;53.590;10.004;2022-10-17T08:44:34;68.97;;;22.40;;
239;SDS011;104;53.590;10.004;2022-10-17T08:47:06;38.27;;;20.40;;
239;SDS011;104;53.590;10.004;2022-10-17T08:49:40;47.90;;;22.10;;
239;SDS011;104;53.590;10.004;2022-10-17T08:52:14;40.47;;;21.10;;
239;SDS011;104;53.590;10.004;2022-10-17T08:54:45;36.43;;;19.80;;
239;SDS011;104;53.590;10.004;2022-10-17T08:57:20;33.80;;;21.10;;
239;SDS011;104;53.590;10.004;2022-10-17T08:59:52;36.90;;;21.00;;
239;SDS011;104;53.590;10.004;2022-10-17T09:02:34;45.27;;;23.00;;
239;SDS011;104;53.590;10.004;2022-10-17T09:05:13;36.50;;;22.33;;
239;SDS011;104;53.590;10.004;2022-10-17T09:07:51;43.93;;;22.70;;
239;SDS011;104;53.590;10.004;2022-10-17T09:10:24;42.30;;;21.83;;
239;SDS011;104;53.590;10.004;2022-10-17T09:13:00;36.10;;;22.30;;
239;SDS011;104;53.590;10.004;2022-10-17T09:15:39;40.80;;;23.67;;
239;SDS011;104;53.590;10.004;2022-10-17T09:18:10;38.50;;;21.30;;
239;SDS011;104;53.590;10.004;2022-10-17T09:20:50;36.03;;;21.43;;
239;SDS011;104;53.590;10.004;2022-10-17T09:23:23;37.70;;;22.30;;
239;SDS011;104;53.590;10.004;2022-10-17T09:25:57;40.40;;;21.10;;
239;SDS011;104;53.590;10.004;2022-10-17T09:28:33;40.70;;;21.67;;
239;SDS011;104;53.590;10.004;2022-10-17T09:31:02;46.43;;;22.20;;
239;SDS011;104;53.590;10.004;2022-10-17T09:33:32;39.83;;;20.90;;
239;SDS011;104;53.590;10.004;2022-10-17T09:36:00;31.97;;;19.50;;
239;SDS011;104;53.590;10.004;2022-10-17T09:38:35;29.43;;;19.87;;
239;SDS011;104;53.590;10.004;2022-10-17T09:41:04;31.47;;;19.30;;
239;SDS011;104;53.590;10.004;2022-10-17T09:43:34;41.67;;;21.20;;
239;SDS011;104;53.590;10.004;2022-10-17T09:46:03;34.07;;;19.80;;
239;SDS011;104;53.590;10.004;2022-10-17T09:48:33;33.43;;;20.30;;
239;SDS011;104;53.590;10.004;2022-10-17T09:51:01;29.73;;;19.23;;
239;SDS011;104;53.590;10.004;2022-10-17T09:53:30;33.10;;;20.33;;
239;SDS011;104;53.590;10.004;2022-10-17T09:56:00;31.77;;;19.60;;
239;SDS011;104;53.590;10.004;2022-10-17T09:58:40;32.20;;;19.13;;
239;SDS011;104;53.590;10.004;2022-10-17T10:01:15;32.60;;;19.63;;
239;SDS011;104;53.590;10.004;2022-10-17T10:03:42;38.03;;;21.00;;
239;SDS011;104;53.590;10.004;2022-10-17T10:06:12;35.57;;;23.27;;
239;SDS011;104;53.590;10.004;2022-10-17T10:08:47;32.20;;;21.10;;
239;SDS011;104;53.590;10.004;2022-10-17T10:11:14;28.83;;;19.57;;
239;SDS011;104;53.590;10.004;2022-10-17T10:13:44;32.77;;;18.60;;
239;SDS011;104;53.590;10.004;2022-10-17T10:16:13;30.60;;;19.37;;
239;SDS011;104;53.590;10.004;2022-10-17T10:18:41;35.47;;;21.10;;
239;SDS011;104;53.590;10.004;2022-10-17T10:21:10;32.10;;;20.43;;
239;SDS011;104;53.590;10.004;2022-10-17T10:23:38;31.77;;;18.40;;
239;SDS011;104;53.590;10.004;2022-10-17T10:26:11;31.27;;;19.70;;
239;SDS011;104;53.590;10.004;2022-10-17T10:28:40;32.70;;;20.23;;
239;SDS011;104;53.590;10.004;2022-10-17T10:31:23;33.67;;;20.87;;
239;SDS011;104;53.590;10.004;2022-10-17T10:33:51;33.37;;;20.40;;
239;SDS011;104;53.590;10.004;2022-10-17T10:36:18;37.33;;;21.00;;
239;SDS011;104;53.590;10.004;2022-10-17T10:38:50;37.43;;;21.50;;
239;SDS011;104;53.590;10.004;2022-10-17T10:41:18;45.00;;;21.63;;
239;SDS011;104;53.590;10.004;2022-10-17T10:43:46;31.67;;;19.63;;
239;SDS011;104;53.590;10.004;2022-10-17T10:46:19;31.20;;;19.57;;
239;SDS011;104;53.590;10.004;2022-10-17T10:48:52;30.57;;;19.57;;
239;SDS011;104;53.590;10.004;2022-10-17T10:51:23;33.70;;;21.37;;
239;SDS011;104;53.590;10.004;2022-10-17T10:53:54;35.93;;;19.70;;
239;SDS011;104;53.590;10.004;2022-10-17T10:56:25;30.27;;;19.67;;
239;SDS011;104;53.590;10.004;2022-10-17T10:58:54;29.27;;;19.83;;
239;SDS011;104;53.590;10.004;2022-10-17T11:01:26;34.37;;;18.73;;
239;SDS011;104;53.590;10.004;2022-10-17T11:03:58;27.63;;;18.93;;
239;SDS011;104;53.590;10.004;2022-10-17T11:06:29;33.87;;;19.70;;
239;SDS011;104;53.590;10.004;2022-10-17T11:09:04;33.50;;;18.87;;
239;SDS011;104;53.590;10.004;2022-10-17T11:11:33;27.67;;;17.87;;
239;SDS011;104;53.590;10.004;2022-10-17T11:14:04;28.00;;;17.90;;
239;SDS011;104;53.590;10.004;2022-10-17T11:16:34;28.30;;;18.77;;
239;SDS011;104;53.590;10.004;2022-10-17T11:19:05;24.90;;;17.67;;
239;SDS011;104;53.590;10.004;2022-10-17T11:21:39;26.10;;;17.67;;
239;SDS011;104;53.590;10.004;2022-10-17T11:24:11;24.87;;;17.47;;
239;SDS011;104;53.590;10.004;2022-10-17T11:26:42;26.60;;;17.47;;
239;SDS011;104;53.590;10.004;2022-10-17T11:29:11;26.87;;;16.83;;
239;SDS011;104;53.590;10.004;2022-10-17T11:31:40;27.00;;;16.53;;
239;SDS011;104;53.590;10.004;2022-10-17T11:34:10;27.10;;;16.13;;
239;SDS011;104;53.590;10.004;2022-10-17T11:36:43;35.70;;;17.80;;
239;SDS011;104;53.590;10.004;2022-10-17T11:39:14;33.63;;;15.60;;
239;SDS011;104;53.590;10.004;2022-10-17T11:41:44;22.63;;;15.47;;
239;SDS011;104;53.590;10.004;2022-10-17T11:44:14;20.00;;;15.07;;
239;SDS011;104;53.590;10.004;2022-10-17T11:46:47;26.03;;;15.70;;
239;SDS011;104;53.590;10.004;2022-10-17T11:49:17;25.13;;;15.87;;
239;SDS011;104;53.590;10.004;2022-10-17T11:51:45;20.03;;;15.00;;
239;SDS011;104;53.590;10.004;2022-10-17T11:54:15;27.27;;;14.33;;
239;SDS011;104;53.590;10.004;2022-10-17T11:56:45;21.10;;;13.70;;
239;SDS011;104;53.590;10.004;2022-10-17T11:59:30;21.30;;;14.97;;
239;SDS011;104;53.590;10.004;2022-10-17T12:02:10;19.27;;;14.17;;
239;SDS011;104;53.590;10.004;2022-10-17T12:04:39;28.23;;;15.03;;
239;SDS011;104;53.590;10.004;2022-10-17T12:07:13;19.37;;;14.07;;
239;SDS011;104;53.590;10.004;2022-10-17T12:09:45;21.13;;;15.10;;
239;SDS011;104;53.590;10.004;2022-10-17T12:12:22;23.53;;;14.70;;
239;SDS011;104;53.590;10.004;2022-10-17T12:14:51;23.07;;;14.17;;
239;SDS011;104;53.590;10.004;2022-10-17T12:17:28;20.17;;;13.20;;
239;SDS011;104;53.590;10.004;2022-10-17T12:22:45;39.33;;;12.87;;
239;SDS011;104;53.590;10.004;2022-10-17T12:25:15;19.10;;;13.00;;
239;SDS011;104;53.590;10.004;2022-10-17T12:27:44;19.13;;;12.60;;
239;SDS011;104;53.590;10.004;2022-10-17T12:30:15;23.60;;;14.33;;
239;SDS011;104;53.590;10.004;2022-10-17T12:32:58;17.60;;;12.83;;
239;SDS011;104;53.590;10.004;2022-10-17T12:35:27;23.13;;;14.07;;
239;SDS011;104;53.590;10.004;2022-10-17T12:43:36;22.97;;;14.40;;
239;SDS011;104;53.590;10.004;2022-10-17T12:46:03;17.40;;;12.70;;
239;SDS011;104;53.590;10.004;2022-10-17T12:51:19;19.53;;;13.40;;
239;SDS011;104;53.590;10.004;2022-10-17T12:53:51;26.73;;;13.40;;
239;SDS011;104;53.590;10.004;2022-10-17T12:56:21;20.90;;;14.27;;
239;SDS011;104;53.590;10.004;2022-10-17T12:58:56;21.23;;;13.73;;
239;SDS011;104;53.590;10.004;2022-10-17T13:01:25;25.73;;;13.30;;
239;SDS011;104;53.590;10.004;2022-10-17T13:03:53;18.07;;;13.67;;
239;SDS011;104;53.590;10.004;2022-10-17T13:06:23;18.97;;;14.00;;
239;SDS011;104;53.590;10.004;2022-10-17T13:08:52;30.13;;;14.80;;
239;SDS011;104;53.590;10.004;2022-10-17T13:11:22;21.47;;;14.37;;
239;SDS011;104;53.590;10.004;2022-10-17T13:13:51;17.90;;;13.13;;
239;SDS011;104;53.590;10.004;2022-10-17T13:16:28;18.03;;;12.60;;
239;SDS011;104;53.590;10.004;2022-10-17T13:18:56;16.40;;;13.30;;
239;SDS011;104;53.590;10.004;2022-10-17T13:21:25;24.63;;;18.50;;
239;SDS011;104;53.590;10.004;2022-10-17T13:23:52;16.43;;;13.30;;
239;SDS011;104;53.590;10.004;2022-10-17T13:26:21;19.17;;;13.43;;
239;SDS011;104;53.590;10.004;2022-10-17T13:28:59;17.83;;;13.07;;
239;SDS011;104;53.590;10.004;2022-10-17T13:31:28;25.60;;;13.07;;
239;SDS011;104;53.590;10.004;2022-10-17T13:33:56;22.57;;;13.10;;
239;SDS011;104;53.590;10.004;2022-10-17T13:36:25;22.50;;;14.00;;
239;SDS011;104;53.590;10.004;2022-10-17T13:38:53;15.03;;;12.47;;
239;SDS011;104;53.590;10.004;2022-10-17T13:41:22;22.00;;;12.87;;
239;SDS011;104;53.590;10.004;2022-10-17T13:43:50;18.63;;;13.80;;
239;SDS011;104;53.590;10.004;2022-10-17T13:46:20;21.37;;;13.77;;
239;SDS011;104;53.590;10.004;2022-10-17T13:48:50;25.20;;;14.23;;
239;SDS011;104;53.590;10.004;2022-10-17T13:51:19;19.57;;;13.23;;
239;SDS011;104;53.590;10.004;2022-10-17T13:53:48;16.67;;;12.90;;
239;SDS011;104;53.590;10.004;2022-10-17T13:56:16;17.67;;;13.70;;
239;SDS011;104;53.590;10.004;2022-10-17T13:58:45;26.23;;;12.77;;
239;SDS011;104;53.590;10.004;2022-10-17T14:01:12;20.80;;;13.50;;
239;SDS011;104;53.590;10.004;2022-10-17T14:03:40;23.03;;;13.17;;
239;SDS011;104;53.590;10.004;2022-10-17T14:06:11;21.97;;;14.60;;
239;SDS011;104;53.590;10.004;2022-10-17T14:08:44;19.63;;;14.17;;
239;SDS011;104;53.590;10.004;2022-10-17T14:11:17;25.93;;;14.60;;
239;SDS011;104;53.590;10.004;2022-10-17T14:13:47;17.90;;;12.77;;
239;SDS011;104;53.590;10.004;2022-10-17T14:16:14;29.60;;;13.80;;
239;SDS011;104;53.590;10.004;2022-10-17T14:18:44;19.50;;;12.90;;
239;SDS011;104;53.590;10.004;2022-10-17T14:21:17;18.80;;;13.60;;
239;SDS011;104;53.590;10.004;2022-10-17T14:23:45;25.90;;;15.80;;
239;SDS011;104;53.590;10.004;2022-10-17T14:26:17;21.30;;;14.20;;
239;SDS011;104;53.590;10.004;2022-10-17T14:29:03;21.30;;;13.03;;
239;SDS011;104;53.590;10.004;2022-10-17T14:31:44;16.00;;;12.73;;
239;SDS011;104;53.590;10.004;2022-10-17T14:34:19;23.13;;;12.07;;
239;SDS011;104;53.590;10.004;2022-10-17T14:36:50;19.37;;;12.03;;
239;SDS011;104;53.590;10.004;2022-10-17T14:39:20;17.23;;;12.00;;
239;SDS011;104;53.590;10.004;2022-10-17T14:41:49;26.50;;;12.00;;
239;SDS011;104;53.590;10.004;2022-10-17T14:44:19;17.97;;;12.97;;
239;SDS011;104;53.590;10.004;2022-10-17T14:46:46;25.77;;;16.07;;
239;SDS011;104;53.590;10.004;2022-10-17T14:49:15;21.80;;;15.43;;
239;SDS011;104;53.590;10.004;2022-10-17T14:54:25;18.63;;;14.07;;
239;SDS011;104;53.590;10.004;2022-10-17T14:56:55;17.90;;;12.67;;
239;SDS011;104;53.590;10.004;2022-10-17T14:59:23;17.70;;;13.30;;
239;SDS011;104;53.590;10.004;2022-10-17T15:01:50;22.93;;;10.50;;
239;SDS011;104;53.590;10.004;2022-10-17T15:04:17;17.30;;;12.17;;
239;SDS011;104;53.590;10.004;2022-10-17T15:06:45;15.50;;;10.27;;
239;SDS011;104;53.590;10.004;2022-10-17T15:09:20;16.87;;;13.10;;
239;SDS011;104;53.590;10.004;2022-10-17T15:11:47;27.10;;;13.90;;
239;SDS011;104;53.590;10.004;2022-10-17T15:14:16;28.37;;;14.63;;
239;SDS011;104;53.590;10.004;2022-10-17T15:16:43;21.23;;;13.57;;
239;SDS011;104;53.590;10.004;2022-10-17T15:19:11;23.13;;;13.40;;
239;SDS011;104;53.590;10.004;2022-10-17T15:21:39;44.00;;;14.70;;
239;SDS011;104;53.590;10.004;2022-10-17T15:24:06;20.57;;;14.00;;
239;SDS011;104;53.590;10.004;2022-10-17T15:26:34;22.13;;;13.07;;
239;SDS011;104;53.590;10.004;2022-10-17T15:29:01;21.27;;;14.03;;
239;SDS011;104;53.590;10.004;2022-10-17T15:31:30;20.60;;;13.80;;
239;SDS011;104;53.590;10.004;2022-10-17T15:33:57;19.40;;;12.83;;
239;SDS011;104;53.590;10.004;2022-10-17T15:36:25;19.77;;;15.03;;
239;SDS011;104;53.590;10.004;2022-10-17T15:38:53;22.60;;;14.57;;
239;SDS011;104;53.590;10.004;2022-10-17T15:41:21;26.23;;;13.93;;
239;SDS011;104;53.590;10.004;2022-10-17T15:43:49;20.00;;;14.07;;
239;SDS011;104;53.590;10.004;2022-10-17T15:46:17;22.83;;;15.40;;
239;SDS011;104;53.590;10.004;2022-10-17T15:48:46;27.30;;;14.73;;
239;SDS011;104;53.590;10.004;2022-10-17T15:51:14;20.00;;;13.40;;
239;SDS011;104;53.590;10.004;2022-10-17T15:53:41;33.80;;;14.10;;
239;SDS011;104;53.590;10.004;2022-10-17T15:56:13;23.20;;;14.60;;
239;SDS011;104;53.590;10.004;2022-10-17T15:58:44;25.13;;;15.70;;
239;SDS011;104;53.590;10.004;2022-10-17T16:01:15;24.20;;;14.30;;
239;SDS011;104;53.590;10.004;2022-10-17T16:03:44;22.50;;;15.47;;
239;SDS011;104;53.590;10.004;2022-10-17T16:06:15;21.10;;;15.47;;
239;SDS011;104;53.590;10.004;2022-10-17T16:08:43;27.50;;;14.33;;
239;SDS011;104;53.590;10.004;2022-10-17T16:11:14;20.40;;;13.63;;
239;SDS011;104;53.590;10.004;2022-10-17T16:13:43;18.70;;;13.90;;
239;SDS011;104;53.590;10.004;2022-10-17T16:16:13;43.40;;;17.30;;
239;SDS011;104;53.590;10.004;2022-10-17T16:18:40;34.13;;;16.97;;
239;SDS011;104;53.590;10.004;2022-10-17T16:21:08;31.17;;;14.90;;